createdAt,value
2023-01-24T00:00:50.572Z,57.87
2023-01-24T00:01:54.841Z,58.15
2023-01-24T00:02:59.073Z,58.11
2023-01-24T00:04:03.318Z,57.71
2023-01-24T00:05:07.562Z,57.98
2023-01-24T00:06:11.804Z,58.08
2023-01-24T00:07:16.051Z,57.73
2023-01-24T00:08:20.284Z,58.42
2023-01-24T00:09:24.540Z,58.03
2023-01-24T00:10:28.772Z,57.82
2023-01-24T00:11:33.020Z,57.87
2023-01-24T00:12:37.247Z,58.42
2023-01-24T00:13:41.619Z,58.46
2023-01-24T00:14:45.867Z,58.25
2023-01-24T00:15:50.210Z,58.4
2023-01-24T00:16:54.501Z,58.47
2023-01-24T00:17:58.729Z,58.7
2023-01-24T00:19:02.999Z,58.7
2023-01-24T00:20:07.254Z,58.89
2023-01-24T00:21:11.507Z,58.98
2023-01-24T00:22:15.789Z,58.88
2023-01-24T00:23:20.029Z,58.73
2023-01-24T00:24:24.474Z,58.7
2023-01-24T00:25:28.736Z,58.72
2023-01-24T00:26:33.011Z,59.01
2023-01-24T00:27:37.341Z,58.63
2023-01-24T00:28:41.594Z,58.81
2023-01-24T00:29:45.812Z,59.06
2023-01-24T00:30:50.219Z,59.28
2023-01-24T00:31:54.888Z,59.14
2023-01-24T00:32:59.257Z,58.74
2023-01-24T00:34:03.508Z,59.17
2023-01-24T00:35:07.747Z,59.32
2023-01-24T00:36:11.997Z,59.17
2023-01-24T00:37:16.268Z,59.04
2023-01-24T00:38:20.527Z,59.49
2023-01-24T00:39:24.757Z,59.43
2023-01-24T00:40:29.236Z,59.26
2023-01-24T00:41:33.499Z,59.37
2023-01-24T00:42:37.742Z,59.72
2023-01-24T00:43:42.022Z,60
2023-01-24T00:44:46.313Z,59.97
2023-01-24T00:45:50.724Z,60.21
2023-01-24T00:46:54.988Z,59.37
2023-01-24T00:47:59.287Z,59.91
2023-01-24T00:49:03.567Z,59.62
2023-01-24T00:50:11.358Z,59.56
2023-01-24T00:51:16.154Z,59.77
2023-01-24T00:52:20.910Z,59.49
2023-01-24T00:53:25.521Z,60.21
2023-01-24T00:54:29.785Z,59.75
2023-01-24T00:55:33.992Z,59.95
2023-01-24T00:56:38.213Z,59.67
2023-01-24T00:57:42.511Z,59.48
2023-01-24T00:58:46.755Z,59.65
2023-01-24T00:59:51.085Z,59.96
2023-01-24T01:00:55.320Z,60.38
2023-01-24T01:01:59.687Z,60.44
2023-01-24T01:03:04.321Z,60.14
2023-01-24T01:04:08.545Z,60.36
2023-01-24T01:05:12.982Z,59.85
2023-01-24T01:06:17.260Z,59.62
2023-01-24T01:07:21.531Z,59.8
2023-01-24T01:08:25.759Z,59.77
2023-01-24T01:09:30.004Z,59.81
2023-01-24T01:10:34.239Z,60
2023-01-24T01:11:38.493Z,59.82
2023-01-24T01:12:42.720Z,60.17
2023-01-24T01:13:47.007Z,59.96
2023-01-24T01:14:51.297Z,59.73
2023-01-24T01:15:55.678Z,59.57
2023-01-24T01:16:59.968Z,59.53
2023-01-24T01:18:04.226Z,60.15
2023-01-24T01:19:08.466Z,60.19
2023-01-24T01:20:12.714Z,60.34
2023-01-24T01:21:16.943Z,60.65
2023-01-24T01:22:21.179Z,60.49
2023-01-24T01:23:25.386Z,60.37
2023-01-24T01:24:29.651Z,60.59
2023-01-24T01:25:33.883Z,61.01
2023-01-24T01:26:38.160Z,60.55
2023-01-24T01:27:42.434Z,60.34
2023-01-24T01:28:46.684Z,60.91
2023-01-24T01:29:50.997Z,60.95
2023-01-24T01:30:55.574Z,60.62
2023-01-24T01:32:00.387Z,61.13
2023-01-24T01:33:04.705Z,61.13
2023-01-24T01:34:08.976Z,61.24
2023-01-24T01:35:13.308Z,61.17
2023-01-24T01:36:17.602Z,61.32
2023-01-24T01:37:21.923Z,61.26
2023-01-24T01:38:26.204Z,61.22
2023-01-24T01:39:30.465Z,60.94
2023-01-24T01:40:34.723Z,61.34
2023-01-24T01:41:38.980Z,60.8
2023-01-24T01:42:43.202Z,60.71
2023-01-24T01:43:47.487Z,61.34
2023-01-24T01:44:51.789Z,61.09
2023-01-24T01:45:56.267Z,61.28
2023-01-24T01:47:00.643Z,61.5
2023-01-24T01:48:04.905Z,61.13
2023-01-24T01:49:09.256Z,61.41
2023-01-24T01:50:13.533Z,61.54
2023-01-24T01:51:17.768Z,61.32
2023-01-24T01:52:22.006Z,61.35
2023-01-24T01:53:26.226Z,60.92
2023-01-24T01:54:30.499Z,61.43
2023-01-24T01:55:34.793Z,61.03
2023-01-24T01:56:39.025Z,61.17
2023-01-24T01:57:43.226Z,61.72
2023-01-24T01:58:47.550Z,61.62
2023-01-24T01:59:51.824Z,61.28
2023-01-24T02:00:56.516Z,60.66
2023-01-24T02:02:01.068Z,60.8
2023-01-24T02:03:05.339Z,61.08
2023-01-24T02:04:09.593Z,61.19
2023-01-24T02:05:13.856Z,61
2023-01-24T02:06:18.127Z,61.74
2023-01-24T02:07:22.409Z,61.24
2023-01-24T02:08:26.795Z,61.12
2023-01-24T02:09:31.052Z,61.64
2023-01-24T02:10:35.313Z,61.91
2023-01-24T02:11:39.628Z,60.64
2023-01-24T02:12:43.904Z,61.7
2023-01-24T02:13:48.174Z,61.18
2023-01-24T02:14:52.429Z,61.34
2023-01-24T02:15:56.682Z,60.72
2023-01-24T02:17:01.117Z,60.99
2023-01-24T02:18:05.413Z,60.82
2023-01-24T02:19:09.640Z,61.81
2023-01-24T02:20:13.925Z,60.98
2023-01-24T02:21:18.380Z,60.86
2023-01-24T02:22:22.612Z,61.61
2023-01-24T02:23:26.925Z,61.25
2023-01-24T02:24:31.132Z,61.21
2023-01-24T02:25:35.452Z,61.22
2023-01-24T02:26:39.725Z,61.03
2023-01-24T02:27:44.099Z,61.74
2023-01-24T02:28:48.378Z,61.35
2023-01-24T02:29:52.631Z,61.77
2023-01-24T02:30:57.047Z,60.9
2023-01-24T02:32:01.635Z,61.9
2023-01-24T02:33:06.087Z,61.96
2023-01-24T02:34:10.310Z,61.76
2023-01-24T02:35:14.546Z,61.19
2023-01-24T02:36:18.794Z,61.85
2023-01-24T02:37:23.046Z,62.39
2023-01-24T02:38:27.294Z,62.25
2023-01-24T02:39:31.523Z,61.43
2023-01-24T02:40:35.800Z,61.27
2023-01-24T02:41:40.135Z,62.13
2023-01-24T02:42:44.396Z,62.04
2023-01-24T02:43:48.709Z,61.82
2023-01-24T02:44:52.928Z,61.29
2023-01-24T02:45:57.423Z,62.12
2023-01-24T02:47:01.776Z,61.73
2023-01-24T02:48:06.049Z,61.44
2023-01-24T02:49:10.292Z,62.3
2023-01-24T02:50:14.581Z,62.46
2023-01-24T02:51:18.881Z,61.47
2023-01-24T02:52:23.147Z,61.09
2023-01-24T02:53:27.383Z,61.58
2023-01-24T02:54:31.648Z,61.62
2023-01-24T02:55:35.865Z,61.24
2023-01-24T02:56:40.104Z,60.95
2023-01-24T02:57:44.350Z,62.02
2023-01-24T02:58:48.681Z,61.26
2023-01-24T02:59:53.009Z,61.5
2023-01-24T03:00:57.497Z,61.22
2023-01-24T03:02:01.945Z,61.31
2023-01-24T03:03:06.198Z,61.44
2023-01-24T03:04:10.437Z,61.37
2023-01-24T03:05:14.697Z,61.3
2023-01-24T03:06:18.935Z,61.23
2023-01-24T03:07:23.223Z,61.22
2023-01-24T03:08:27.480Z,61.25
2023-01-24T03:09:31.729Z,61.33
2023-01-24T03:10:35.967Z,61.3
2023-01-24T03:11:40.274Z,61.25
2023-01-24T03:12:44.503Z,61.65
2023-01-24T03:13:48.736Z,61.16
2023-01-24T03:14:52.995Z,61.16
2023-01-24T03:15:57.305Z,61.16
2023-01-24T03:17:01.553Z,61.47
2023-01-24T03:18:05.864Z,61.44
2023-01-24T03:19:10.132Z,61.21
2023-01-24T03:20:14.378Z,61.19
2023-01-24T03:21:18.601Z,61.43
2023-01-24T03:22:22.898Z,61.18
2023-01-24T03:23:27.160Z,61.14
2023-01-24T03:24:31.441Z,61.35
2023-01-24T03:25:35.705Z,61.49
2023-01-24T03:26:39.984Z,61.42
2023-01-24T03:27:44.209Z,61.28
2023-01-24T03:28:48.443Z,61.06
2023-01-24T03:29:52.695Z,61.44
2023-01-24T03:30:56.953Z,61.34
2023-01-24T03:32:01.672Z,61.14
2023-01-24T03:33:05.975Z,61.62
2023-01-24T03:34:10.254Z,61.48
2023-01-24T03:35:14.502Z,61.3
2023-01-24T03:36:18.735Z,61.89
2023-01-24T03:37:23.006Z,62.47
2023-01-24T03:38:27.242Z,61.76
2023-01-24T03:39:31.518Z,61.65
2023-01-24T03:40:35.748Z,62.3
2023-01-24T03:41:40.857Z,61.77
2023-01-24T03:42:46.015Z,62.02
2023-01-24T03:43:50.242Z,62.43
2023-01-24T03:44:54.488Z,62.39
2023-01-24T03:45:58.910Z,62.31
2023-01-24T03:47:03.137Z,61.85
2023-01-24T03:48:07.397Z,61.77
2023-01-24T03:49:11.646Z,61.8
2023-01-24T03:50:15.872Z,62.18
2023-01-24T03:51:20.089Z,62.51
2023-01-24T03:52:24.389Z,62.53
2023-01-24T03:53:28.650Z,62.36
2023-01-24T03:54:32.894Z,62.06
2023-01-24T03:55:37.206Z,62.22
2023-01-24T03:56:41.425Z,61.93
2023-01-24T03:57:45.700Z,61.47
2023-01-24T03:58:49.958Z,62.15
2023-01-24T03:59:54.204Z,61.66
2023-01-24T04:00:58.615Z,62.29
2023-01-24T04:02:03.110Z,62.44
2023-01-24T04:03:07.370Z,62.22
2023-01-24T04:04:11.774Z,61.85
2023-01-24T04:05:16.057Z,62.19
2023-01-24T04:06:20.352Z,62.49
2023-01-24T04:07:29.178Z,62.46
2023-01-24T04:08:33.432Z,61.5
2023-01-24T04:09:37.715Z,61.93
2023-01-24T04:10:41.972Z,61.6
2023-01-24T04:11:46.218Z,62.39
2023-01-24T04:12:50.440Z,61.78
2023-01-24T04:13:54.677Z,61.53
2023-01-24T04:14:58.945Z,62.39
2023-01-24T04:16:03.238Z,62.61
2023-01-24T04:17:07.510Z,62.54
2023-01-24T04:18:11.751Z,62.67
2023-01-24T04:19:15.998Z,61.73
2023-01-24T04:20:20.254Z,62.24
2023-01-24T04:21:24.496Z,62.5
2023-01-24T04:22:28.755Z,61.94
2023-01-24T04:23:32.992Z,62.76
2023-01-24T04:24:37.228Z,62.47
2023-01-24T04:25:41.519Z,62
2023-01-24T04:26:45.787Z,62.16
2023-01-24T04:27:50.122Z,61.88
2023-01-24T04:28:54.360Z,62.81
2023-01-24T04:29:58.610Z,62.58
2023-01-24T04:31:03.395Z,62.48
2023-01-24T04:32:07.769Z,62.89
2023-01-24T04:33:12.045Z,62.94
2023-01-24T04:34:16.471Z,62.24
2023-01-24T04:35:21.743Z,62.15
2023-01-24T04:36:26.287Z,62.57
2023-01-24T04:37:30.539Z,62.65
2023-01-24T04:38:34.771Z,62.47
2023-01-24T04:39:39.118Z,62.73
2023-01-24T04:40:43.364Z,62.75
2023-01-24T04:41:47.618Z,62.48
2023-01-24T04:42:51.871Z,62.61
2023-01-24T04:43:56.094Z,62.11
2023-01-24T04:45:00.332Z,61.7
2023-01-24T04:46:04.608Z,62.22
2023-01-24T04:47:09.029Z,62.26
2023-01-24T04:48:13.437Z,62.12
2023-01-24T04:49:17.657Z,61.82
2023-01-24T04:50:21.862Z,62.65
2023-01-24T04:51:26.123Z,62.73
2023-01-24T04:52:30.333Z,62.73
2023-01-24T04:53:34.582Z,62.22
2023-01-24T04:54:38.813Z,62.71
2023-01-24T04:55:43.067Z,62.22
2023-01-24T04:56:47.341Z,62.71
2023-01-24T04:57:51.702Z,62.65
2023-01-24T04:58:55.926Z,62.19
2023-01-24T05:00:00.176Z,62.06
2023-01-24T05:01:05.790Z,62.6
2023-01-24T05:02:10.230Z,62
2023-01-24T05:03:14.639Z,62.36
2023-01-24T05:04:18.934Z,61.4
2023-01-24T05:05:24.469Z,62.02
2023-01-24T05:06:28.931Z,62.24
2023-01-24T05:07:33.309Z,61.52
2023-01-24T05:08:37.574Z,61.34
2023-01-24T05:09:41.854Z,62.01
2023-01-24T05:10:46.068Z,62.07
2023-01-24T05:11:50.277Z,61.62
2023-01-24T05:12:54.532Z,61.22
2023-01-24T05:13:58.771Z,60.77
2023-01-24T05:15:03.162Z,60.4
2023-01-24T05:16:07.408Z,59.99
2023-01-24T05:17:11.880Z,59.62
2023-01-24T05:18:16.131Z,59.4
2023-01-24T05:19:20.704Z,59.16
2023-01-24T05:20:24.963Z,58.95
2023-01-24T05:21:29.170Z,58.76
2023-01-24T05:22:33.459Z,58.78
2023-01-24T05:23:37.687Z,58.65
2023-01-24T05:24:42.225Z,58.61
2023-01-24T05:25:46.454Z,58.55
2023-01-24T05:26:50.723Z,58.56
2023-01-24T05:27:54.945Z,58.41
2023-01-24T05:28:59.174Z,58.51
2023-01-24T05:30:03.460Z,58.52
2023-01-24T05:31:07.865Z,58.49
2023-01-24T05:32:12.126Z,58.48
2023-01-24T05:33:16.483Z,58.58
2023-01-24T05:34:20.734Z,58.66
2023-01-24T05:35:25.653Z,58.69
2023-01-24T05:36:29.921Z,58.66
2023-01-24T05:37:34.267Z,58.75
2023-01-24T05:38:38.499Z,58.86
2023-01-24T05:39:42.862Z,59.02
2023-01-24T05:40:47.124Z,58.98
2023-01-24T05:41:51.427Z,59.09
2023-01-24T05:42:55.684Z,59.32
2023-01-24T05:43:59.891Z,59.32
2023-01-24T05:45:04.157Z,59.52
2023-01-24T05:46:08.632Z,59.67
2023-01-24T05:47:12.904Z,59.68
2023-01-24T05:48:17.158Z,59.71
2023-01-24T05:49:21.415Z,59.79
2023-01-24T05:50:25.652Z,59.88
2023-01-24T05:51:29.930Z,59.8
2023-01-24T05:52:34.189Z,60.07
2023-01-24T05:53:38.429Z,60.19
2023-01-24T05:54:42.729Z,60.21
2023-01-24T05:55:46.958Z,60.2
2023-01-24T05:56:51.262Z,60.18
2023-01-24T05:57:55.486Z,60.17
2023-01-24T05:58:59.793Z,60.36
2023-01-24T06:00:04.103Z,60.17
2023-01-24T06:01:08.355Z,60.27
2023-01-24T06:02:13.014Z,60.16
2023-01-24T06:03:17.790Z,60.35
2023-01-24T06:04:22.173Z,60.16
2023-01-24T06:05:27.040Z,59.96
2023-01-24T06:06:31.720Z,59.81
2023-01-24T06:07:36.004Z,59.9
2023-01-24T06:08:40.267Z,59.84
2023-01-24T06:09:44.547Z,59.97
2023-01-24T06:10:48.772Z,60.02
2023-01-24T06:11:53.028Z,59.92
2023-01-24T06:12:57.312Z,60.33
2023-01-24T06:14:01.583Z,60.1
2023-01-24T06:15:05.824Z,59.88
2023-01-24T06:16:10.279Z,59.78
2023-01-24T06:17:14.618Z,59.64
2023-01-24T06:18:18.875Z,59.83
2023-01-24T06:19:23.128Z,60.12
2023-01-24T06:20:27.372Z,60.1
2023-01-24T06:21:31.640Z,60.48
2023-01-24T06:22:35.906Z,60.52
2023-01-24T06:23:40.153Z,60.6
2023-01-24T06:24:44.407Z,60.72
2023-01-24T06:25:48.688Z,60.72
2023-01-24T06:26:53.351Z,60.77
2023-01-24T06:27:57.596Z,60.7
2023-01-24T06:29:01.854Z,60.75
2023-01-24T06:30:06.228Z,60.71
2023-01-24T06:31:10.982Z,60.79
2023-01-24T06:32:15.358Z,60.94
2023-01-24T06:33:19.578Z,60.9
2023-01-24T06:34:23.815Z,60.94
2023-01-24T06:35:28.268Z,61.12
2023-01-24T06:36:32.536Z,60.7
2023-01-24T06:37:36.789Z,61
2023-01-24T06:38:41.243Z,61.19
2023-01-24T06:39:45.477Z,61.16
2023-01-24T06:40:49.760Z,61.2
2023-01-24T06:41:54.023Z,61.05
2023-01-24T06:42:58.272Z,61.14
2023-01-24T06:44:02.568Z,60.79
2023-01-24T06:45:06.842Z,60.69
2023-01-24T06:46:11.419Z,61.16
2023-01-24T06:47:15.876Z,61.02
2023-01-24T06:48:20.127Z,61.25
2023-01-24T06:49:24.591Z,61.15
2023-01-24T06:50:28.888Z,61.08
2023-01-24T06:51:33.139Z,61.18
2023-01-24T06:52:37.683Z,60.74
2023-01-24T06:53:41.965Z,61
2023-01-24T06:54:46.418Z,61.12
2023-01-24T06:55:50.760Z,61.11
2023-01-24T06:56:54.994Z,61.01
2023-01-24T06:57:59.464Z,60.19
2023-01-24T06:59:03.691Z,59.68
2023-01-24T07:00:07.933Z,59.29
2023-01-24T07:01:12.321Z,58.81
2023-01-24T07:02:16.819Z,58.68
2023-01-24T07:03:23.543Z,58.24
2023-01-24T07:04:27.810Z,57.93
2023-01-24T07:05:32.164Z,57.62
2023-01-24T07:06:36.467Z,57.12
2023-01-24T07:07:40.700Z,56.88
2023-01-24T07:08:44.972Z,56.99
2023-01-24T07:09:49.229Z,56.77
2023-01-24T07:10:53.462Z,56.58
2023-01-24T07:11:57.777Z,56.4
2023-01-24T07:13:02.086Z,56.32
2023-01-24T07:14:06.335Z,56.33
2023-01-24T07:15:10.692Z,56.35
2023-01-24T07:16:14.981Z,56.3
2023-01-24T07:17:19.287Z,56.28
2023-01-24T07:18:23.509Z,56.14
2023-01-24T07:19:27.824Z,56.04
2023-01-24T07:20:32.091Z,56.01
2023-01-24T07:21:36.368Z,56.03
2023-01-24T07:22:40.658Z,56.05
2023-01-24T07:23:45.042Z,55.99
2023-01-24T07:24:49.301Z,55.82
2023-01-24T07:25:53.569Z,55.86
2023-01-24T07:26:57.831Z,55.95
2023-01-24T07:28:02.111Z,55.86
2023-01-24T07:29:06.473Z,55.77
2023-01-24T07:30:10.754Z,55.9
2023-01-24T07:31:15.364Z,55.72
2023-01-24T07:32:20.039Z,55.91
2023-01-24T07:33:24.310Z,55.96
2023-01-24T07:34:28.552Z,55.84
2023-01-24T07:35:32.834Z,55.99
2023-01-24T07:36:37.096Z,55.87
2023-01-24T07:37:41.328Z,55.93
2023-01-24T07:38:45.609Z,55.9
2023-01-24T07:39:49.861Z,55.88
2023-01-24T07:40:54.185Z,55.86
2023-01-24T07:41:58.493Z,55.91
2023-01-24T07:43:02.741Z,55.51
2023-01-24T07:44:07.084Z,55.59
2023-01-24T07:45:11.369Z,55.39
2023-01-24T07:46:15.845Z,55.44
2023-01-24T07:47:20.147Z,54.62
2023-01-24T07:48:24.632Z,54.58
2023-01-24T07:49:28.869Z,54.44
2023-01-24T07:50:33.145Z,54.01
2023-01-24T07:51:37.501Z,53.66
2023-01-24T07:52:41.768Z,53.4
2023-01-24T07:53:46.005Z,53.27
2023-01-24T07:54:50.481Z,53.05
2023-01-24T07:56:04.257Z,52.97
2023-01-24T07:57:08.529Z,53
2023-01-24T07:58:12.825Z,52.86
2023-01-24T07:59:18.195Z,52.81
2023-01-24T08:00:23.574Z,53.01
2023-01-24T08:01:28.036Z,53.16
2023-01-24T08:02:32.512Z,52.84
2023-01-24T08:03:36.782Z,52.87
2023-01-24T08:04:41.034Z,52.88
2023-01-24T08:05:45.273Z,53
2023-01-24T08:06:49.576Z,53.04
2023-01-24T08:07:53.968Z,53.14
2023-01-24T08:08:58.226Z,53.22
2023-01-24T08:10:02.472Z,53.24
2023-01-24T08:11:06.783Z,53.77
2023-01-24T08:12:11.081Z,53.5
2023-01-24T08:13:15.390Z,53.51
2023-01-24T08:14:19.625Z,54.08
2023-01-24T08:15:23.869Z,53.9
2023-01-24T08:16:28.437Z,53.88
2023-01-24T08:17:32.727Z,54.01
2023-01-24T08:18:37.010Z,53.86
2023-01-24T08:19:59.202Z,53.67
2023-01-24T08:21:03.466Z,53.83
2023-01-24T08:22:07.822Z,54.02
2023-01-24T08:23:12.086Z,53.37
2023-01-24T08:24:16.483Z,53.56
2023-01-24T08:25:21.205Z,53.36
2023-01-24T08:26:25.548Z,53.4
2023-01-24T08:27:29.892Z,53.37
2023-01-24T08:28:34.313Z,53.52
2023-01-24T08:29:38.546Z,53.45
2023-01-24T08:30:42.816Z,53.43
2023-01-24T08:31:47.248Z,53.54
2023-01-24T08:32:51.506Z,53.47
2023-01-24T08:33:55.743Z,53.6
2023-01-24T08:35:00.016Z,53.63
2023-01-24T08:36:04.291Z,53.54
2023-01-24T08:37:08.536Z,53.61
2023-01-24T08:38:12.770Z,53.74
2023-01-24T08:39:29.944Z,53.84
2023-01-24T08:40:51.360Z,53.69
2023-01-24T08:41:55.717Z,53.74
2023-01-24T08:43:00.001Z,53.84
2023-01-24T08:44:04.241Z,53.8
2023-01-24T08:45:08.554Z,53.87
2023-01-24T08:46:13.170Z,53.95
2023-01-24T08:47:17.463Z,53.94
2023-01-24T08:48:21.706Z,53.89
2023-01-24T08:49:26.036Z,53.98
2023-01-24T08:50:30.305Z,53.99
2023-01-24T08:51:34.547Z,54.02
2023-01-24T08:52:38.877Z,54.01
2023-01-24T08:53:43.115Z,53.95
2023-01-24T08:54:47.367Z,53.86
2023-01-24T08:55:51.597Z,53.72
2023-01-24T08:56:55.838Z,53.51
2023-01-24T08:58:00.110Z,53.34
2023-01-24T08:59:04.407Z,53.27
2023-01-24T09:00:08.699Z,53.35
2023-01-24T09:01:12.975Z,52.81
2023-01-24T09:02:17.520Z,53
2023-01-24T09:03:21.799Z,52.61
2023-01-24T09:04:26.035Z,52.75
2023-01-24T09:05:30.628Z,52.51
2023-01-24T09:06:34.983Z,52.3
2023-01-24T09:07:39.324Z,52.56
2023-01-24T09:08:43.550Z,52.69
2023-01-24T09:09:47.805Z,52.59
2023-01-24T09:10:52.033Z,52.49
2023-01-24T09:11:56.285Z,52.69
2023-01-24T09:13:00.705Z,52.44
2023-01-24T09:14:04.985Z,52.28
2023-01-24T09:15:09.240Z,52.29
2023-01-24T09:16:13.682Z,52.32
2023-01-24T09:17:17.937Z,52.66
2023-01-24T09:18:22.262Z,52.3
2023-01-24T09:19:26.484Z,52.31
2023-01-24T09:20:30.749Z,52.4
2023-01-24T09:21:35.275Z,52.58
2023-01-24T09:22:39.541Z,52.53
2023-01-24T09:23:43.944Z,52.55
2023-01-24T09:24:48.176Z,52.46
2023-01-24T09:25:52.620Z,52.5
2023-01-24T09:26:56.878Z,52.59
2023-01-24T09:28:01.123Z,53.05
2023-01-24T09:29:05.429Z,52.68
2023-01-24T09:30:09.695Z,52.61
2023-01-24T09:31:14.083Z,52.62
2023-01-24T09:32:18.597Z,52.82
2023-01-24T09:33:22.905Z,52.81
2023-01-24T09:34:27.269Z,52.69
2023-01-24T09:35:31.536Z,52.77
2023-01-24T09:36:35.794Z,52.88
2023-01-24T09:37:40.228Z,52.83
2023-01-24T09:39:06.826Z,52.98
2023-01-24T09:40:11.132Z,53.12
2023-01-24T09:41:15.370Z,53.11
2023-01-24T09:42:19.633Z,53.17
2023-01-24T09:43:23.860Z,53.18
2023-01-24T09:44:28.262Z,53.24
2023-01-24T09:45:32.634Z,53.32
2023-01-24T09:46:37.181Z,53.35
2023-01-24T09:47:41.430Z,53.42
2023-01-24T09:48:45.695Z,53.43
2023-01-24T09:49:49.931Z,53.49
2023-01-24T09:50:54.205Z,53.47
2023-01-24T09:51:58.432Z,53.49
2023-01-24T09:53:02.649Z,53.44
2023-01-24T09:54:06.922Z,53.43
2023-01-24T09:55:11.185Z,53.57
2023-01-24T09:56:18.256Z,53.47
2023-01-24T09:57:22.473Z,53.24
2023-01-24T09:58:26.728Z,53.24
2023-01-24T09:59:30.970Z,53.36
2023-01-24T10:00:35.219Z,53.63
2023-01-24T10:01:39.449Z,53.61
2023-01-24T10:02:43.719Z,53.52
2023-01-24T10:03:48.047Z,52.92
2023-01-24T10:04:52.305Z,52.73
2023-01-24T10:05:56.563Z,52.54
2023-01-24T10:07:00.819Z,52.36
2023-01-24T10:08:05.105Z,52.1
2023-01-24T10:09:09.348Z,51.96
2023-01-24T10:10:13.585Z,51.74
2023-01-24T10:11:17.844Z,51.47
2023-01-24T10:12:22.068Z,51.48
2023-01-24T10:13:26.348Z,51.31
2023-01-24T10:14:30.612Z,51.26
2023-01-24T10:15:34.841Z,51.18
2023-01-24T10:16:39.353Z,51.13
2023-01-24T10:17:43.588Z,51.26
2023-01-24T10:18:47.840Z,51.2
2023-01-24T10:19:52.163Z,51.2
2023-01-24T10:20:56.386Z,51.3
2023-01-24T10:22:00.621Z,51.24
2023-01-24T10:23:04.867Z,51.4
2023-01-24T10:24:09.323Z,51.42
2023-01-24T10:25:13.705Z,51.6
2023-01-24T10:26:17.947Z,51.58
2023-01-24T10:27:22.223Z,51.64
2023-01-24T10:28:26.463Z,51.73
2023-01-24T10:29:30.733Z,51.8
2023-01-24T10:30:35.068Z,51.85
2023-01-24T10:31:40.179Z,51.86
2023-01-24T10:32:44.492Z,51.86
2023-01-24T10:33:48.786Z,52.01
2023-01-24T10:34:53.042Z,51.96
2023-01-24T10:35:57.309Z,52.07
2023-01-24T10:37:01.569Z,52.14
2023-01-24T10:38:05.808Z,52.24
2023-01-24T10:39:10.040Z,52.22
2023-01-24T10:40:14.447Z,52.34
2023-01-24T10:41:21.813Z,52.44
2023-01-24T10:42:26.041Z,52.43
2023-01-24T10:43:30.277Z,52.5
2023-01-24T10:44:34.557Z,52.67
2023-01-24T10:45:38.856Z,52.68
2023-01-24T10:46:43.139Z,52.6
2023-01-24T10:47:47.434Z,52.6
2023-01-24T10:48:51.688Z,52.74
2023-01-24T10:49:55.936Z,52.7
2023-01-24T10:51:00.261Z,52.93
2023-01-24T10:52:04.469Z,52.89
2023-01-24T10:53:08.715Z,53.03
2023-01-24T10:54:12.959Z,53.09
2023-01-24T10:55:19.714Z,52.98
2023-01-24T10:56:24.295Z,52.94
2023-01-24T10:57:28.537Z,53
2023-01-24T10:58:39.260Z,53
2023-01-24T10:59:43.616Z,53.04
2023-01-24T11:00:47.914Z,53.1
2023-01-24T11:01:52.303Z,53.05
2023-01-24T11:02:56.545Z,53.21
2023-01-24T11:04:00.775Z,53.22
2023-01-24T11:05:05.116Z,53.12
2023-01-24T11:06:09.396Z,53.13
2023-01-24T11:07:13.636Z,53.24
2023-01-24T11:08:17.857Z,53.31
2023-01-24T11:09:22.127Z,53.33
2023-01-24T11:10:26.486Z,53.3
2023-01-24T11:11:30.793Z,53.05
2023-01-24T11:12:35.051Z,53.26
2023-01-24T11:13:39.278Z,53.23
2023-01-24T11:14:43.506Z,53.01
2023-01-24T11:15:47.927Z,53.35
2023-01-24T11:16:52.542Z,53.34
2023-01-24T11:17:56.840Z,53.43
2023-01-24T11:19:01.124Z,53.25
2023-01-24T11:20:05.353Z,53.14
2023-01-24T11:21:09.597Z,52.79
2023-01-24T11:22:13.827Z,52.59
2023-01-24T11:23:18.077Z,52.42
2023-01-24T11:24:22.583Z,52.24
2023-01-24T11:25:27.391Z,51.99
2023-01-24T11:26:31.659Z,51.91
2023-01-24T11:27:35.917Z,51.92
2023-01-24T11:28:40.161Z,51.78
2023-01-24T11:29:44.431Z,51.67
2023-01-24T11:30:48.826Z,51.75
2023-01-24T11:31:53.562Z,51.57
2023-01-24T11:32:57.817Z,51.64
2023-01-24T11:34:02.072Z,51.62
2023-01-24T11:35:06.319Z,51.44
2023-01-24T11:36:10.557Z,51.69
2023-01-24T11:37:14.937Z,51.61
2023-01-24T11:38:19.208Z,51.66
2023-01-24T11:39:23.445Z,51.69
2023-01-24T11:40:27.680Z,51.66
2023-01-24T11:41:31.941Z,51.61
2023-01-24T11:42:36.168Z,51.58
2023-01-24T11:43:40.411Z,51.66
2023-01-24T11:44:44.708Z,51.88
2023-01-24T11:45:48.951Z,51.85
2023-01-24T11:46:53.192Z,51.72
2023-01-24T11:47:57.467Z,51.9
2023-01-24T11:49:01.726Z,51.97
2023-01-24T11:50:06.014Z,51.87
2023-01-24T11:51:15.830Z,51.84
2023-01-24T11:52:20.062Z,52
2023-01-24T11:53:24.328Z,51.95
2023-01-24T11:54:28.577Z,52
2023-01-24T11:55:32.824Z,52.3
2023-01-24T11:56:37.109Z,52.26
2023-01-24T11:57:41.400Z,52.25
2023-01-24T11:58:45.616Z,52.25
2023-01-24T11:59:49.932Z,52.42
2023-01-24T12:00:54.170Z,52.37
2023-01-24T12:01:58.494Z,52.56
2023-01-24T12:03:03.103Z,52.41
2023-01-24T12:04:07.602Z,52.7
2023-01-24T12:05:11.901Z,52.72
2023-01-24T12:06:16.137Z,52.78
2023-01-24T12:07:20.363Z,52.81
2023-01-24T12:08:24.615Z,52.72
2023-01-24T12:09:28.873Z,52.66
2023-01-24T12:10:33.099Z,52.66
2023-01-24T12:11:38.932Z,52.73
2023-01-24T12:12:57.557Z,52.78
2023-01-24T12:14:01.864Z,52.7
2023-01-24T12:15:06.127Z,52.5
2023-01-24T12:16:13.069Z,52.72
2023-01-24T12:17:30.519Z,52.67
2023-01-24T12:18:34.848Z,52.72
2023-01-24T12:19:39.294Z,52.69
2023-01-24T12:20:43.530Z,52.75
2023-01-24T12:21:47.791Z,52.71
2023-01-24T12:22:52.069Z,52.78
2023-01-24T12:23:56.577Z,52.68
2023-01-24T12:25:00.886Z,52.74
2023-01-24T12:26:05.125Z,52.88
2023-01-24T12:27:09.365Z,52.9
2023-01-24T12:28:13.727Z,53.08
2023-01-24T12:29:18.001Z,52.96
2023-01-24T12:30:23.601Z,52.81
2023-01-24T12:31:28.577Z,52.58
2023-01-24T12:32:32.875Z,52.92
2023-01-24T12:33:37.124Z,52.74
2023-01-24T12:34:41.357Z,52.49
2023-01-24T12:35:45.589Z,52.37
2023-01-24T12:36:49.792Z,52.34
2023-01-24T12:38:10.077Z,52.32
2023-01-24T12:39:14.323Z,52.3
2023-01-24T12:40:18.536Z,52.27
2023-01-24T12:41:22.754Z,52.22
2023-01-24T12:42:27.000Z,52.37
2023-01-24T12:43:31.382Z,52.46
2023-01-24T12:44:35.645Z,52.35
2023-01-24T12:45:39.904Z,52.5
2023-01-24T12:46:44.326Z,52.52
2023-01-24T12:47:48.589Z,52.58
2023-01-24T12:48:52.816Z,52.78
2023-01-24T12:49:57.057Z,52.79
2023-01-24T12:51:01.348Z,52.82
2023-01-24T12:52:05.590Z,52.98
2023-01-24T12:53:10.230Z,53.16
2023-01-24T12:54:14.445Z,53.17
2023-01-24T12:55:18.736Z,53.24
2023-01-24T12:56:22.998Z,53.36
2023-01-24T12:57:27.258Z,53.41
2023-01-24T12:58:31.529Z,53.7
2023-01-24T12:59:35.804Z,53.78
2023-01-24T13:00:40.053Z,53.91
2023-01-24T13:01:44.605Z,53.9
2023-01-24T13:02:48.988Z,54.06
2023-01-24T13:03:53.280Z,54.36
2023-01-24T13:04:57.577Z,54.52
2023-01-24T13:06:01.862Z,54.43
2023-01-24T13:07:06.079Z,54.47
2023-01-24T13:08:10.316Z,54.44
2023-01-24T13:09:14.573Z,54.51
2023-01-24T13:10:18.805Z,54.41
2023-01-24T13:11:23.039Z,54.51
2023-01-24T13:12:27.283Z,54.46
2023-01-24T13:13:31.524Z,54.38
2023-01-24T13:14:35.799Z,54.43
2023-01-24T13:15:40.109Z,54.46
2023-01-24T13:16:44.625Z,54.51
2023-01-24T13:17:48.908Z,54.59
2023-01-24T13:18:53.133Z,54.56
2023-01-24T13:19:57.416Z,54.62
2023-01-24T13:21:01.699Z,54.62
2023-01-24T13:22:05.983Z,54.55
2023-01-24T13:23:10.225Z,54.49
2023-01-24T13:24:14.662Z,54.64
2023-01-24T13:25:18.913Z,54.49
2023-01-24T13:26:23.226Z,54.5
2023-01-24T13:27:27.505Z,54.45
2023-01-24T13:28:31.898Z,54.41
2023-01-24T13:29:36.153Z,54.43
2023-01-24T13:30:40.370Z,54.42
2023-01-24T13:31:45.032Z,54.37
2023-01-24T13:32:51.337Z,54.35
2023-01-24T13:33:55.564Z,54.43
2023-01-24T13:34:59.900Z,54.46
2023-01-24T13:36:04.130Z,54.39
2023-01-24T13:37:08.559Z,54.44
2023-01-24T13:38:12.807Z,54.45
2023-01-24T13:39:17.057Z,54.55
2023-01-24T13:40:21.287Z,54.54
2023-01-24T13:41:25.553Z,54.58
2023-01-24T13:42:29.862Z,54.51
2023-01-24T13:43:34.130Z,54.47
2023-01-24T13:44:38.381Z,54.54
2023-01-24T13:45:42.781Z,54.63
2023-01-24T13:46:47.106Z,54.71
2023-01-24T13:47:51.382Z,54.67
2023-01-24T13:48:55.685Z,54.76
2023-01-24T13:50:00.039Z,54.85
2023-01-24T13:51:04.302Z,54.73
2023-01-24T13:52:08.684Z,54.85
2023-01-24T13:53:12.982Z,54.84
2023-01-24T13:54:17.243Z,54.83
2023-01-24T13:55:21.500Z,54.99